.
WxDataArchive / Data Records for 2013-08-24
2013-08-23 August 2013 2013-08-25

Data Records for Saturday, 24 August 2013

Time	Temp	Chill	HIndex	Humid	Dewpt	 Wind 	HiWind	WindDir	Rain 	Barom 
-----	----	-----	------	-----	-----	------	------	-------	-----	----- 
00:00	62.1	62.1	62.1	77	54.8	0	0	---	0.00	30.158 
00:05	62.0	62.0	62.0	77	54.7	0	0	---	0.00	30.158 
00:10	61.8	61.8	61.8	78	54.9	0	0	---	0.00	30.158 
00:15	61.6	61.6	61.6	79	55.0	0	0	---	0.00	30.161 
00:20	61.6	61.6	61.6	80	55.4	0	0	---	0.00	30.161 
00:25	61.3	61.3	61.3	80	55.1	0	0	---	0.00	30.161 
00:30	61.2	61.2	61.2	80	55.0	0	0	---	0.00	30.161 
00:35	61.0	61.0	61.0	81	55.1	0	0	---	0.00	30.161 
00:40	60.9	60.9	60.9	81	55.0	0	0	---	0.00	30.161 
00:45	60.7	60.7	60.7	82	55.2	0	0	---	0.00	30.165 
00:50	60.7	60.7	60.7	82	55.2	0	0	---	0.00	30.165 
00:55	60.5	60.5	60.5	82	55.0	0	0	---	0.00	30.165 
01:00	60.4	60.4	60.4	82	54.9	0	0	---	0.00	30.168 
01:05	60.2	60.2	60.2	82	54.7	0	0	---	0.00	30.168 
01:10	60.1	60.1	60.1	83	54.9	0	0	---	0.00	30.168 
01:15	59.9	59.9	59.9	83	54.7	0	0	---	0.00	30.164 
01:20	59.8	59.8	59.8	84	55.0	0	0	---	0.00	30.164 
01:25	59.6	59.6	59.6	84	54.8	0	0	---	0.00	30.164 
01:30	59.5	59.5	59.5	84	54.7	0	0	---	0.00	30.161 
01:35	59.3	59.3	59.3	84	54.5	0	0	---	0.00	30.161 
01:40	59.2	59.2	59.2	84	54.4	0	0	---	0.00	30.161 
01:45	59.2	59.2	59.2	84	54.4	0	0	---	0.00	30.168 
01:50	59.0	59.0	59.0	84	54.2	0	0	---	0.00	30.168 
01:55	58.9	58.9	58.9	84	54.1	0	0	---	0.00	30.168 
02:00	58.7	58.7	58.7	83	53.5	0	0	---	0.00	30.166 
02:05	58.6	58.6	58.6	83	53.4	0	0	---	0.00	30.166 
02:10	58.4	58.4	58.4	82	52.9	0	0	---	0.00	30.166 
02:15	58.3	58.3	58.3	83	53.2	0	0	---	0.00	30.164 
02:20	58.3	58.3	58.3	83	53.2	0	0	---	0.00	30.164 
02:25	58.1	58.1	58.1	82	52.6	0	0	---	0.00	30.164 
02:30	58.0	58.0	58.0	82	52.5	0	0	---	0.00	30.173 
02:35	57.8	57.8	57.8	83	52.7	0	0	---	0.00	30.173 
02:40	57.8	57.8	57.8	83	52.7	0	0	---	0.00	30.173 
02:45	57.8	57.8	57.8	84	53.0	0	0	---	0.00	30.175 
02:50	57.6	57.6	57.6	84	52.8	0	0	---	0.00	30.175 
02:55	57.6	57.6	57.6	85	53.1	0	0	---	0.00	30.175 
03:00	57.6	57.6	57.6	86	53.4	0	0	---	0.00	30.175 
03:05	57.5	57.5	57.5	86	53.3	0	0	---	0.00	30.175 
03:10	57.3	57.3	57.3	86	53.1	0	0	---	0.00	30.175 
03:15	57.2	57.2	57.2	86	53.0	0	0	---	0.00	30.180 
03:20	57.0	57.0	57.0	87	53.2	0	0	---	0.00	30.180 
03:25	56.9	56.9	56.9	87	53.1	0	0	---	0.00	30.180 
03:30	56.9	56.9	56.9	87	53.1	0	0	---	0.00	30.189 
03:35	56.7	56.7	56.7	87	52.9	0	0	---	0.00	30.189 
03:40	56.6	56.6	56.6	87	52.8	0	0	---	0.00	30.189 
03:45	56.5	56.5	56.5	88	53.0	0	0	---	0.00	30.191 
03:50	56.3	56.3	56.3	88	52.8	0	0	---	0.00	30.191 
03:55	56.3	56.3	56.3	88	52.8	0	0	---	0.00	30.191 
04:00	56.2	56.2	56.2	88	52.7	0	0	---	0.00	30.192 
04:05	56.2	56.2	56.2	88	52.7	0	0	---	0.00	30.192 
04:10	56.0	56.0	56.0	88	52.5	0	0	---	0.00	30.192 
04:15	55.9	55.9	55.9	88	52.4	0	0	---	0.00	30.194 
04:20	55.7	55.7	55.7	88	52.2	0	0	---	0.00	30.194 
04:25	55.7	55.7	55.7	89	52.5	0	0	---	0.00	30.194 
04:30	55.6	55.6	55.6	89	52.4	0	0	---	0.00	30.193 
04:35	55.6	55.6	55.6	89	52.4	0	0	---	0.00	30.193 
04:40	55.4	55.4	55.4	90	52.5	0	0	---	0.00	30.193 
04:45	55.3	55.3	55.3	90	52.4	0	0	---	0.00	30.195 
04:50	55.3	55.3	55.3	90	52.4	0	0	---	0.00	30.195 
04:55	55.3	55.3	55.3	91	52.7	0	0	---	0.00	30.195 
05:00	55.4	55.4	55.4	91	52.8	0	0	---	0.00	30.200 
05:05	55.4	55.4	55.4	91	52.8	0	0	---	0.00	30.200 
05:10	55.4	55.4	55.4	91	52.8	0	0	---	0.00	30.200 
05:15	55.6	55.6	55.6	92	53.3	0	0	---	0.00	30.208 
05:20	55.6	55.6	55.6	92	53.3	0	0	---	0.00	30.208 
05:25	55.7	55.7	55.7	92	53.4	0	0	---	0.00	30.208 
05:30	55.7	55.7	55.7	92	53.4	0	0	---	0.00	30.212 
05:35	55.7	55.7	55.7	92	53.4	0	0	---	0.00	30.212 
05:40	55.6	55.6	55.6	92	53.3	0	0	---	0.00	30.212 
05:45	55.6	55.6	55.6	92	53.3	0	0	---	0.00	30.215 
05:50	55.4	55.4	55.4	92	53.1	0	0	---	0.00	30.215 
05:55	55.4	55.4	55.4	92	53.1	0	0	---	0.00	30.215 
06:00	55.3	55.3	55.3	92	53.0	0	0	---	0.00	30.226 
06:05	55.1	55.1	55.1	92	52.8	0	0	---	0.00	30.226 
06:10	55.0	55.0	55.0	92	52.7	0	0	---	0.00	30.226 
06:15	54.8	54.8	54.8	92	52.5	0	0	---	0.00	30.229 
06:20	54.8	54.8	54.8	92	52.5	0	0	---	0.00	30.229 
06:25	54.8	54.8	54.8	92	52.5	0	0	---	0.00	30.229 
06:30	54.8	54.8	54.8	92	52.5	0	0	---	0.00	30.235 
06:35	54.7	54.7	54.7	92	52.4	0	0	---	0.00	30.235 
06:40	54.7	54.7	54.7	92	52.4	0	0	---	0.00	30.235 
06:45	54.5	54.5	54.5	92	52.2	0	0	---	0.00	30.243 
06:50	54.4	54.4	54.4	92	52.1	0	0	---	0.00	30.243 
06:55	54.4	54.4	54.4	92	52.1	0	0	---	0.00	30.243 
07:00	54.2	54.2	54.2	92	51.9	0	0	---	0.00	30.249 
07:05	54.2	54.2	54.2	93	52.2	0	0	---	0.00	30.249 
07:10	54.1	54.1	54.1	93	52.1	0	0	---	0.00	30.249 
07:15	54.1	54.1	54.1	93	52.1	0	0	---	0.00	30.259 
07:20	54.1	54.1	54.1	93	52.1	0	0	---	0.00	30.259 
07:25	54.2	54.2	54.2	93	52.2	0	0	---	0.00	30.259 
07:30	54.2	54.2	54.2	93	52.2	0	0	---	0.00	30.264 
07:35	54.2	54.2	54.2	93	52.2	0	0	---	0.00	30.264 
07:40	54.4	54.4	54.4	93	52.4	0	0	---	0.00	30.264 
07:45	54.5	54.5	54.5	93	52.5	0	0	---	0.00	30.265 
07:50	54.8	54.8	54.8	94	53.1	0	0	---	0.00	30.265 
07:55	55.4	55.4	55.4	94	53.7	0	0	---	0.00	30.265 
08:00	56.0	56.0	56.0	94	54.3	0	0	---	0.00	30.272 
08:05	56.9	56.9	56.9	94	55.2	0	0	---	0.00	30.272 
08:10	57.8	57.8	57.8	94	56.1	0	0	---	0.00	30.272 
08:15	58.6	58.6	58.6	93	56.6	0	0	---	0.00	30.276 
08:20	59.5	59.5	59.5	93	57.5	0	0	---	0.00	30.276 
08:25	60.4	60.4	60.4	92	58.1	0	1	90	0.00	30.276 
08:30	61.8	61.8	61.8	89	58.5	0	1	90	0.00	30.275 
08:35	62.6	62.6	62.6	84	57.7	0	3	90	0.00	30.275 
08:40	63.1	63.1	63.1	81	57.2	1	3	90	0.00	30.275 
08:45	63.2	63.2	63.2	80	56.9	2	5	90	0.00	30.275 
08:50	63.7	63.7	63.7	79	57.1	1	4	90	0.00	30.275 
08:55	63.9	63.9	63.9	79	57.3	1	4	90	0.00	30.275 
09:00	64.2	64.2	64.2	79	57.5	0	2	90	0.00	30.275 
09:05	64.3	64.3	64.3	79	57.6	1	6	90	0.00	30.275 
09:10	64.7	64.7	64.7	79	58.0	1	2	112	0.00	30.275 
09:15	65.0	65.0	65.0	80	58.7	0	2	112	0.00	30.278 
09:20	65.3	65.3	65.3	80	59.0	1	4	112	0.00	30.278 
09:25	65.6	65.6	65.6	80	59.3	1	3	112	0.00	30.278 
09:30	66.0	66.0	66.0	81	60.0	1	4	90	0.00	30.277 
09:35	66.4	66.4	66.4	81	60.4	1	4	90	0.00	30.277 
09:40	66.8	66.8	66.8	80	60.4	2	6	68	0.00	30.277 
09:45	67.1	67.1	67.1	80	60.7	1	3	68	0.00	30.285 
09:50	67.4	67.4	67.4	79	60.7	0	1	68	0.00	30.285 
09:55	67.8	67.8	67.8	75	59.6	2	4	68	0.00	30.285 
10:00	67.9	67.9	67.9	76	60.0	1	3	68	0.00	30.288 
10:05	68.4	68.4	68.4	74	59.8	1	3	68	0.00	30.288 
10:10	68.6	68.6	68.6	73	59.6	2	4	68	0.00	30.288 
10:15	69.3	69.3	69.3	72	59.9	1	3	68	0.00	30.289 
10:20	70.3	70.3	70.3	70	60.0	1	3	68	0.00	30.289 
10:25	71.1	71.1	71.1	67	59.6	1	3	68	0.00	30.289 
10:30	72.0	72.0	72.0	66	60.0	1	2	112	0.00	30.280 
10:35	72.5	72.5	72.5	61	58.3	1	5	90	0.00	30.280 
10:40	73.2	73.2	73.2	61	58.9	1	5	90	0.00	30.280 
10:45	73.9	73.9	73.9	55	56.7	2	4	90	0.00	30.281 
10:50	74.2	74.2	74.2	56	57.5	2	6	68	0.00	30.281 
10:55	74.6	74.6	74.6	54	56.8	2	5	68	0.00	30.281 
11:00	74.9	74.9	74.9	52	56.1	2	4	68	0.00	30.285 
11:05	75.1	75.1	77.7	51	55.7	3	5	90	0.00	30.285 
11:10	74.9	74.9	74.9	50	55.0	4	9	68	0.00	30.285 
11:15	74.9	74.9	74.9	50	55.0	2	6	68	0.00	30.286 
11:20	75.3	75.3	77.7	50	55.4	3	6	90	0.00	30.286 
11:25	75.6	75.6	77.9	48	54.5	3	6	90	0.00	30.286 
11:30	76.1	76.1	78.1	48	55.0	3	7	90	0.00	30.283 
11:35	76.7	76.7	78.3	46	54.3	3	8	90	0.00	30.283 
11:40	77.0	77.0	78.5	46	54.6	2	6	90	0.00	30.283 
11:45	77.6	77.6	78.8	46	55.2	2	5	90	0.00	30.278 
11:50	77.9	77.9	78.8	43	53.6	3	7	90	0.00	30.278 
11:55	78.1	78.1	79.0	44	54.4	2	5	90	0.00	30.278 
12:00	78.3	78.3	79.1	43	53.9	2	6	90	0.00	30.272 
12:05	78.5	78.5	79.1	42	53.5	2	7	90	0.00	30.272 
12:10	78.6	78.6	79.0	40	52.2	2	6	90	0.00	30.272 
12:15	79.0	79.0	79.4	41	53.3	1	5	90	0.00	30.272 
12:20	79.4	79.4	79.6	41	53.6	2	6	90	0.00	30.272 
12:25	79.2	79.2	79.4	40	52.8	3	6	90	0.00	30.272 
12:30	79.0	79.0	79.0	36	49.7	3	6	68	0.00	30.273 
12:35	79.0	79.0	79.2	39	51.9	3	7	90	0.00	30.273 
12:40	79.2	79.2	79.3	38	51.4	2	7	90	0.00	30.273 
12:45	79.4	79.4	79.4	38	51.6	3	7	90	0.00	30.268 
12:50	79.6	79.6	79.3	35	49.5	2	5	90	0.00	30.268 
12:55	79.8	79.8	79.6	37	51.2	2	7	90	0.00	30.268 
13:00	80.1	80.1	79.8	38	52.2	1	5	68	0.00	30.263 
13:05	80.3	80.3	80.0	38	52.4	3	6	90	0.00	30.263 
13:10	80.3	80.3	79.9	37	51.6	3	9	90	0.00	30.263 
13:15	80.9	80.9	80.4	38	52.9	1	4	90	0.00	30.255 
13:20	81.2	81.2	80.3	35	50.9	2	6	68	0.00	30.255 
13:25	81.2	81.2	80.4	36	51.7	3	10	90	0.00	30.255 
13:30	81.2	81.2	80.5	37	52.4	1	6	90	0.00	30.254 
13:35	81.2	81.2	80.4	36	51.7	2	8	90	0.00	30.254 
13:40	81.4	81.4	80.6	36	51.9	2	7	90	0.00	30.254 
13:45	81.4	81.4	80.6	36	51.9	2	6	90	0.00	30.255 
13:50	81.4	81.4	80.5	35	51.1	3	5	90	0.00	30.255 
13:55	81.4	81.4	80.6	36	51.9	2	6	68	0.00	30.255 
14:00	81.4	81.4	80.6	36	51.9	2	4	90	0.00	30.256 
14:05	81.2	81.2	80.4	36	51.7	1	5	112	0.00	30.256 
14:10	81.6	81.6	80.6	35	51.3	1	4	112	0.00	30.256 
14:15	82.2	82.2	81.2	36	52.6	1	4	112	0.00	30.254 
14:20	82.2	82.2	81.1	35	51.8	2	6	90	0.00	30.254 
14:25	81.6	81.6	80.7	36	52.0	3	9	68	0.00	30.254 
14:30	81.6	81.6	80.6	35	51.3	1	4	90	0.00	30.252 
14:35	82.0	82.0	80.8	34	50.8	2	7	68	0.00	30.252 
14:40	82.2	82.2	81.0	34	51.0	1	4	68	0.00	30.252 
14:45	82.4	82.4	81.1	34	51.2	1	5	90	0.00	30.251 
14:50	82.8	82.8	81.3	33	50.7	1	5	112	0.00	30.251 
14:55	82.4	82.4	81.1	34	51.2	2	6	90	0.00	30.251 
15:00	82.8	82.8	81.6	35	52.3	1	3	90	0.00	30.249 
15:05	83.2	83.2	81.6	32	50.2	1	4	112	0.00	30.249 
15:10	83.4	83.4	81.8	33	51.2	1	4	90	0.00	30.249 
15:15	83.2	83.2	81.9	35	52.7	2	4	45	0.00	30.246 
15:20	82.6	82.6	81.4	35	52.1	3	9	90	0.00	30.246 
15:25	82.2	82.2	81.0	34	51.0	2	5	68	0.00	30.246 
15:30	82.2	82.2	81.0	34	51.0	2	5	68	0.00	30.244 
15:35	82.4	82.4	81.0	33	50.4	2	4	90	0.00	30.244 
15:40	82.6	82.6	81.4	35	52.1	2	6	90	0.00	30.244 
15:45	82.4	82.4	81.2	35	52.0	3	6	90	0.00	30.242 
15:50	82.0	82.0	81.0	36	52.4	2	5	90	0.00	30.242 
15:55	82.4	82.4	81.2	35	52.0	1	4	112	0.00	30.242 
16:00	82.4	82.4	81.2	35	52.0	2	5	112	0.00	30.241 
16:05	82.4	82.4	81.1	34	51.2	2	5	135	0.00	30.241 
16:10	82.2	82.2	81.1	35	51.8	3	6	90	0.00	30.241 
16:15	82.2	82.2	81.1	35	51.8	1	4	90	0.00	30.238 
16:20	82.4	82.4	81.4	37	53.5	2	5	90	0.00	30.238 
16:25	82.4	82.4	81.2	35	52.0	1	4	90	0.00	30.238 
16:30	82.6	82.6	81.5	36	52.9	1	6	90	0.00	30.233 
16:35	82.8	82.8	81.4	34	51.5	2	4	90	0.00	30.233 
16:40	82.2	82.2	81.0	34	51.0	2	5	68	0.00	30.233 
16:45	82.0	82.0	80.9	35	51.6	1	3	68	0.00	30.231 
16:50	82.2	82.2	81.1	35	51.8	1	3	68	0.00	30.231 
16:55	82.4	82.4	81.1	34	51.2	1	3	90	0.00	30.231 
17:00	82.6	82.6	81.4	35	52.1	1	6	90	0.00	30.226 
17:05	82.6	82.6	81.3	34	51.4	1	3	90	0.00	30.226 
17:10	82.8	82.8	81.4	34	51.5	2	5	90	0.00	30.226 
17:15	82.4	82.4	81.2	35	52.0	2	7	90	0.00	30.226 
17:20	82.2	82.2	81.1	35	51.8	0	3	90	0.00	30.226 
17:25	82.2	82.2	80.9	33	50.2	2	5	90	0.00	30.226 
17:30	82.4	82.4	81.0	33	50.4	1	3	135	0.00	30.226 
17:35	82.4	82.4	81.0	33	50.4	1	4	112	0.00	30.226 
17:40	82.2	82.2	81.0	34	51.0	1	4	112	0.00	30.226 
17:45	82.2	82.2	80.9	33	50.2	1	3	112	0.00	30.227 
17:50	82.0	82.0	80.7	33	50.0	1	2	112	0.00	30.227 
17:55	82.0	82.0	80.7	33	50.0	0	3	112	0.00	30.227 
18:00	82.0	82.0	80.7	33	50.0	1	3	135	0.00	30.229 
18:05	81.8	81.8	80.7	34	50.7	1	3	135	0.00	30.229 
18:10	81.4	81.4	80.3	33	49.5	1	4	135	0.00	30.229 
18:15	81.1	81.1	80.3	35	50.8	1	3	68	0.00	30.231 
18:20	80.7	80.7	80.0	35	50.5	1	3	68	0.00	30.231 
18:25	80.7	80.7	80.0	35	50.5	0	2	68	0.00	30.231 
18:30	80.5	80.5	79.9	35	50.3	0	2	68	0.00	30.229 
18:35	80.3	80.3	79.8	36	50.9	0	2	112	0.00	30.229 
18:40	80.1	80.1	79.8	37	51.5	1	5	112	0.00	30.229 
18:45	80.1	80.1	79.7	36	50.7	0	3	112	0.00	30.228 
18:50	79.9	79.9	79.6	36	50.5	0	3	112	0.00	30.228 
18:55	79.8	79.8	79.6	37	51.2	1	2	112	0.00	30.228 
19:00	79.6	79.6	79.5	38	51.7	0	2	112	0.00	30.228 
19:05	79.4	79.4	79.5	39	52.3	0	2	112	0.00	30.228 
19:10	79.2	79.2	79.3	38	51.4	0	2	112	0.00	30.228 
19:15	79.2	79.2	79.3	39	52.1	0	2	112	0.00	30.224 
19:20	79.0	79.0	79.3	40	52.6	1	2	112	0.00	30.224 
19:25	78.8	78.8	79.2	40	52.4	0	1	112	0.00	30.224 
19:30	78.6	78.6	79.2	42	53.6	0	2	112	0.00	30.225 
19:35	78.3	78.3	79.0	42	53.3	0	1	112	0.00	30.225 
19:40	78.1	78.1	78.9	42	53.1	0	2	112	0.00	30.225 
19:45	77.9	77.9	78.8	42	52.9	0	1	112	0.00	30.227 
19:50	77.7	77.7	78.7	42	52.8	0	1	112	0.00	30.227 
19:55	77.6	77.6	78.7	43	53.3	0	0	---	0.00	30.227 
20:00	77.2	77.2	78.5	43	52.9	0	0	---	0.00	30.228 
20:05	77.0	77.0	78.4	45	54.0	0	0	---	0.00	30.228 
20:10	76.7	76.7	78.3	46	54.3	0	0	---	0.00	30.228 
20:15	76.1	76.1	78.1	47	54.4	0	0	---	0.00	30.223 
20:20	75.6	75.6	77.9	48	54.5	0	0	---	0.00	30.223 
20:25	75.1	75.1	77.7	49	54.6	0	0	---	0.00	30.223 
20:30	74.6	74.6	74.6	50	54.7	0	0	---	0.00	30.225 
20:35	73.9	73.9	73.9	51	54.6	0	0	---	0.00	30.225 
20:40	73.3	73.3	73.3	51	54.1	0	0	---	0.00	30.225 
20:45	72.8	72.8	72.8	53	54.7	0	0	---	0.00	30.225 
20:50	72.3	72.3	72.3	54	54.7	0	0	---	0.00	30.225 
20:55	72.0	72.0	72.0	55	54.9	0	0	---	0.00	30.225 
21:00	71.5	71.5	71.5	57	55.5	0	0	---	0.00	30.228 
21:05	71.1	71.1	71.1	59	56.0	0	0	---	0.00	30.228 
21:10	70.8	70.8	70.8	60	56.2	0	0	---	0.00	30.228 
21:15	70.3	70.3	70.3	62	56.7	0	0	---	0.00	30.236 
21:20	69.9	69.9	69.9	63	56.7	0	0	---	0.00	30.236 
21:25	69.6	69.6	69.6	65	57.3	0	0	---	0.00	30.236 
21:30	69.3	69.3	69.3	67	57.9	0	0	---	0.00	30.241 
21:35	68.9	68.9	68.9	68	57.9	0	0	---	0.00	30.241 
21:40	68.6	68.6	68.6	68	57.6	0	0	---	0.00	30.241 
21:45	68.1	68.1	68.1	67	56.7	0	0	---	0.00	30.244 
21:50	67.9	67.9	67.9	69	57.3	0	0	---	0.00	30.244 
21:55	67.8	67.8	67.8	70	57.6	0	0	---	0.00	30.244 
22:00	67.4	67.4	67.4	69	56.9	0	0	---	0.00	30.245 
22:05	67.3	67.3	67.3	70	57.2	0	1	112	0.00	30.245 
22:10	67.1	67.1	67.1	69	56.6	0	0	---	0.00	30.245 
22:15	66.9	66.9	66.9	69	56.4	0	0	---	0.00	30.241 
22:20	66.8	66.8	66.8	68	55.9	0	0	---	0.00	30.241 
22:25	66.6	66.6	66.6	69	56.1	0	0	---	0.00	30.241 
22:30	66.6	66.6	66.6	69	56.1	0	0	---	0.00	30.240 
22:35	66.6	66.6	66.6	69	56.1	0	0	---	0.00	30.240 
22:40	66.4	66.4	66.4	69	55.9	0	0	---	0.00	30.240 
22:45	66.4	66.4	66.4	69	55.9	0	0	---	0.00	30.239 
22:50	66.3	66.3	66.3	70	56.2	0	0	---	0.00	30.239 
22:55	66.3	66.3	66.3	70	56.2	0	0	---	0.00	30.239 
23:00	66.1	66.1	66.1	71	56.4	0	0	---	0.00	30.239 
23:05	66.0	66.0	66.0	71	56.3	0	0	---	0.00	30.239 
23:10	65.8	65.8	65.8	72	56.5	0	1	112	0.00	30.239 
23:15	65.8	65.8	65.8	72	56.5	0	1	112	0.00	30.239 
23:20	66.1	66.1	66.1	70	56.0	0	1	112	0.00	30.239 
23:25	66.6	66.6	66.6	69	56.1	0	2	112	0.00	30.239 
23:30	66.9	66.9	66.9	69	56.4	0	2	112	0.00	30.236 
23:35	67.1	67.1	67.1	69	56.6	0	2	112	0.00	30.236 
23:40	67.1	67.1	67.1	69	56.6	0	2	112	0.00	30.236 
23:45	67.1	67.1	67.1	69	56.6	0	2	112	0.00	30.239 
23:50	66.9	66.9	66.9	70	56.8	1	3	112	0.00	30.239 
23:55	66.8	66.8	66.8	72	57.5	1	2	112	0.00	30.239 

CoCoRaHS
IN-AL-39
A2 Web Hosting
Creative Commons License
GoDaddy
search engine by freefind advanced

loaded 2018-11-17 18:47:07 • last modified 2010-11-18 10:43:29
Privacy PolicyDisclaimer
• wx.awcolley.com is powered by PmWiki v.2002016 •
• all content (unless otherwise noted) © 2018 A W Colley